Molunkus Township, Maine
Current Conditions -  °F | °C
As of 3:29 AM on Thursday 27 Nov 2014 (Local Time) from KMLT Reporting Station
Light Snow Light Snow  
Wind Chill: 16°   Ceiling: 900
Heat Index: 26°   Visibility: 0.75mi
Dew Point: 23°   Wind: 12mph
Humidity: 88%   Direction: 360°N
Pressure: 29.8"   Gusts: NA
Location:  45.574°N, 68.322°W
Report Text: KMLT 270829Z AUTO 36010KT 3/4SM -SN BR VV009 M03/M05 A2980 RMK AO2 P0000 T10331050
Loading
Personal Weather Stations






























Interactive Weather Map New forecast layout! Learn more

10-Day Weather Forecast

Advertisements
Track Severe Weather on mobile